createdAt,value
2023-05-11T00:00:51.009Z,10.10
2023-05-11T00:03:17.994Z,10.23
2023-05-11T00:05:47.876Z,9.50
2023-05-11T00:08:17.133Z,12.13
2023-05-11T00:10:47.624Z,11.63
2023-05-11T00:13:14.356Z,8.77
2023-05-11T00:15:41.302Z,9.67
2023-05-11T00:18:08.304Z,12.10
2023-05-11T00:20:35.088Z,9.50
2023-05-11T00:23:01.966Z,10.07
2023-05-11T00:25:28.634Z,12.07
2023-05-11T00:27:55.290Z,10.30
2023-05-11T00:30:22.042Z,9.37
2023-05-11T00:32:52.328Z,9.90
2023-05-11T00:35:19.131Z,9.93
2023-05-11T00:37:45.966Z,10.00
2023-05-11T00:40:13.147Z,9.73
2023-05-11T00:42:40.167Z,13.43
2023-05-11T00:45:07.061Z,10.57
2023-05-11T00:47:33.821Z,11.83
2023-05-11T00:50:00.837Z,10.73
2023-05-11T00:52:27.585Z,9.77
2023-05-11T00:54:54.375Z,12.37
2023-05-11T00:57:21.503Z,10.00
2023-05-11T00:59:49.309Z,12.03
2023-05-11T01:02:17.024Z,11.73
2023-05-11T01:04:44.051Z,10.37
2023-05-11T01:07:19.758Z,10.73
2023-05-11T01:10:08.957Z,10.83
2023-05-11T01:12:53.238Z,12.77
2023-05-11T01:15:52.441Z,14.83
2023-05-11T01:18:35.392Z,12.73
2023-05-11T01:21:09.605Z,14.03
2023-05-11T01:23:39.527Z,14.07
2023-05-11T01:26:15.840Z,14.67
2023-05-11T01:29:02.200Z,16.20
2023-05-11T01:31:33.691Z,16.10
2023-05-11T01:34:17.728Z,18.17
2023-05-11T01:36:52.004Z,14.17
2023-05-11T01:39:22.100Z,18.00
2023-05-11T01:41:51.803Z,18.07
2023-05-11T01:44:19.996Z,17.93
2023-05-11T01:46:47.061Z,18.50
2023-05-11T01:49:14.483Z,19.43
2023-05-11T01:51:42.849Z,18.07
2023-05-11T01:54:10.277Z,20.47
2023-05-11T01:56:38.736Z,23.10
2023-05-11T01:59:05.697Z,20.03
2023-05-11T02:01:34.283Z,23.93
2023-05-11T02:04:02.338Z,18.53
2023-05-11T02:06:29.695Z,17.80
2023-05-11T02:08:58.079Z,17.70
2023-05-11T02:11:26.208Z,19.70
2023-05-11T02:13:53.533Z,18.40
2023-05-11T02:16:20.638Z,19.47
2023-05-11T02:18:49.145Z,22.77
2023-05-11T02:21:16.696Z,19.47
2023-05-11T02:23:46.689Z,19.47
2023-05-11T02:26:14.917Z,25.53
2023-05-11T02:28:41.908Z,23.00
2023-05-11T02:31:10.563Z,22.83
2023-05-11T02:33:42.971Z,26.47
2023-05-11T02:36:10.469Z,21.47
2023-05-11T02:38:38.803Z,21.47
2023-05-11T02:41:11.992Z,24.10
2023-05-11T02:43:42.590Z,24.63
2023-05-11T02:46:14.537Z,22.97
2023-05-11T02:48:47.188Z,25.60
2023-05-11T02:51:17.175Z,23.87
2023-05-11T02:53:49.216Z,26.67
2023-05-11T02:56:16.189Z,21.20
2023-05-11T02:58:43.279Z,25.80
2023-05-11T03:01:17.173Z,27.93
2023-05-11T03:03:44.399Z,25.47
2023-05-11T03:06:11.353Z,24.63
2023-05-11T03:08:38.072Z,27.10
2023-05-11T03:11:05.055Z,25.07
2023-05-11T03:13:32.374Z,27.27
2023-05-11T03:16:02.687Z,26.30
2023-05-11T03:18:32.620Z,25.30
2023-05-11T03:21:00.772Z,25.70
2023-05-11T03:23:28.592Z,25.47
2023-05-11T03:25:56.317Z,30.63
2023-05-11T03:28:24.436Z,27.73
2023-05-11T03:30:59.992Z,24.83
2023-05-11T03:33:26.756Z,29.67
2023-05-11T03:35:54.195Z,28.67
2023-05-11T03:38:24.417Z,25.30
2023-05-11T03:40:53.229Z,24.67
2023-05-11T03:43:21.083Z,25.83
2023-05-11T03:45:51.767Z,27.60
2023-05-11T03:48:19.275Z,24.03
2023-05-11T03:50:46.891Z,26.67
2023-05-11T03:53:15.783Z,27.70
2023-05-11T03:55:43.254Z,28.83
2023-05-11T03:58:10.444Z,27.50
2023-05-11T04:00:40.897Z,29.80
2023-05-11T04:03:12.502Z,30.67
2023-05-11T04:05:39.370Z,29.20
2023-05-11T04:08:09.862Z,32.83
2023-05-11T04:10:38.479Z,31.07
2023-05-11T04:13:05.208Z,31.30
2023-05-11T04:15:31.865Z,28.60
2023-05-11T04:17:58.676Z,29.73
2023-05-11T04:20:25.639Z,27.50
2023-05-11T04:22:52.382Z,27.70
2023-05-11T04:25:19.208Z,31.67
2023-05-11T04:27:45.890Z,29.07
2023-05-11T04:30:12.887Z,31.47
2023-05-11T04:32:39.942Z,29.37
2023-05-11T04:35:06.852Z,25.07
2023-05-11T04:37:36.857Z,26.20
2023-05-11T04:40:06.040Z,26.53
2023-05-11T04:42:38.201Z,24.67
2023-05-11T04:45:08.472Z,24.93
2023-05-11T04:47:35.263Z,25.67
2023-05-11T04:50:02.308Z,27.57
2023-05-11T04:52:30.757Z,27.60
2023-05-11T04:54:57.434Z,24.17
2023-05-11T04:57:24.139Z,24.17
2023-05-11T04:59:51.074Z,25.00
2023-05-11T05:02:17.760Z,21.10
2023-05-11T05:04:44.975Z,25.20
2023-05-11T05:07:12.763Z,25.73
2023-05-11T05:09:39.516Z,21.93
2023-05-11T05:12:06.328Z,24.77
2023-05-11T05:14:33.130Z,28.43
2023-05-11T05:17:01.616Z,25.30
2023-05-11T05:19:28.970Z,22.03
2023-05-11T05:21:55.893Z,21.10
2023-05-11T05:24:22.700Z,23.53
2023-05-11T05:26:49.439Z,26.30
2023-05-11T05:29:16.779Z,21.73
2023-05-11T05:31:44.010Z,19.47
2023-05-11T05:34:11.626Z,20.60
2023-05-11T05:36:39.635Z,22.40
2023-05-11T05:39:12.186Z,18.17
2023-05-11T05:41:40.077Z,22.07
2023-05-11T05:44:08.695Z,16.63
2023-05-11T05:46:36.840Z,17.33
2023-05-11T05:49:04.308Z,16.93
2023-05-11T05:51:31.562Z,20.67
2023-05-11T05:53:58.873Z,19.60
2023-05-11T05:56:26.601Z,16.53
2023-05-11T05:58:53.492Z,20.47
2023-05-11T06:01:22.149Z,17.17
2023-05-11T06:03:49.446Z,19.27
2023-05-11T06:06:16.440Z,16.67
2023-05-11T06:08:44.243Z,16.13
2023-05-11T06:11:11.120Z,19.87
2023-05-11T06:13:38.333Z,15.80
2023-05-11T06:16:05.231Z,19.27
2023-05-11T06:18:34.113Z,17.80
2023-05-11T06:21:02.964Z,17.70
2023-05-11T06:23:31.486Z,18.90
2023-05-11T06:25:58.250Z,18.77
2023-05-11T06:28:26.379Z,16.13
2023-05-11T06:30:59.401Z,18.23
2023-05-11T06:33:29.107Z,16.40
2023-05-11T06:35:56.212Z,17.60
2023-05-11T06:38:23.509Z,18.93
2023-05-11T06:40:53.821Z,15.23
2023-05-11T06:43:20.658Z,16.73
2023-05-11T06:45:48.788Z,15.80
2023-05-11T06:48:17.211Z,15.97
2023-05-11T06:50:44.001Z,17.13
2023-05-11T06:53:12.982Z,14.70
2023-05-11T06:55:40.110Z,16.00
2023-05-11T06:58:07.109Z,20.43
2023-05-11T07:00:34.399Z,15.07
2023-05-11T07:03:01.273Z,16.53
2023-05-11T07:05:28.316Z,15.33
2023-05-11T07:07:55.184Z,18.77
2023-05-11T07:10:22.019Z,18.07
2023-05-11T07:12:49.372Z,19.13
2023-05-11T07:15:16.075Z,12.83
2023-05-11T07:17:43.190Z,14.67
2023-05-11T07:20:10.099Z,13.23
2023-05-11T07:22:36.730Z,12.67
2023-05-11T07:25:05.060Z,13.37
2023-05-11T07:27:32.994Z,13.77
2023-05-11T07:29:59.647Z,13.60
2023-05-11T07:32:26.868Z,13.33
2023-05-11T07:34:53.817Z,15.73
2023-05-11T07:37:20.492Z,18.77
2023-05-11T07:39:47.917Z,14.20
2023-05-11T07:42:14.646Z,14.30
2023-05-11T07:44:41.396Z,14.87
2023-05-11T07:47:08.197Z,15.10
2023-05-11T07:49:43.031Z,14.87
2023-05-11T07:52:11.310Z,13.47
2023-05-11T07:54:38.128Z,13.67
2023-05-11T07:57:05.459Z,12.47
2023-05-11T07:59:32.583Z,14.77
2023-05-11T08:01:59.649Z,16.57
2023-05-11T08:04:27.261Z,13.47
2023-05-11T08:06:54.020Z,12.87
2023-05-11T08:09:20.685Z,15.40
2023-05-11T08:11:47.852Z,14.87
2023-05-11T08:14:14.526Z,12.30
2023-05-11T08:16:41.554Z,12.43
2023-05-11T08:19:08.446Z,13.30
2023-05-11T08:21:35.150Z,12.93
2023-05-11T08:24:01.777Z,14.97
2023-05-11T08:26:28.666Z,14.87
2023-05-11T08:28:55.290Z,15.77
2023-05-11T08:31:22.052Z,15.23
2023-05-11T08:33:48.877Z,11.00
2023-05-11T08:36:15.884Z,15.53
2023-05-11T08:38:42.619Z,12.53
2023-05-11T08:41:12.063Z,9.87
2023-05-11T08:43:39.911Z,13.40
2023-05-11T08:46:11.665Z,12.53
2023-05-11T08:48:38.586Z,15.03
2023-05-11T08:51:05.723Z,14.83
2023-05-11T08:53:32.949Z,12.37
2023-05-11T08:56:01.402Z,13.23
2023-05-11T08:58:28.842Z,12.50
2023-05-11T09:00:55.985Z,15.43
2023-05-11T09:03:23.177Z,14.13
2023-05-11T09:05:50.326Z,17.33
2023-05-11T09:08:18.217Z,13.63
2023-05-11T09:10:44.998Z,17.10
2023-05-11T09:13:11.996Z,18.33
2023-05-11T09:15:39.452Z,18.37
2023-05-11T09:18:07.182Z,17.20
2023-05-11T09:20:36.702Z,20.30
2023-05-11T09:23:03.684Z,17.87
2023-05-11T09:25:33.251Z,17.27
2023-05-11T09:28:00.590Z,15.90
2023-05-11T09:30:28.565Z,21.63
2023-05-11T09:32:59.517Z,17.43
2023-05-11T09:35:28.709Z,15.00
2023-05-11T09:37:59.397Z,18.17
2023-05-11T09:40:27.793Z,17.07
2023-05-11T09:43:01.451Z,16.30
2023-05-11T09:45:35.853Z,19.77
2023-05-11T09:48:04.441Z,21.30
2023-05-11T09:50:32.908Z,18.83
2023-05-11T09:52:59.789Z,20.20
2023-05-11T09:55:26.502Z,19.20
2023-05-11T09:57:54.884Z,17.80
2023-05-11T10:00:21.820Z,20.33
2023-05-11T10:02:59.635Z,17.17
2023-05-11T10:05:26.578Z,18.07
2023-05-11T10:08:00.296Z,15.83
2023-05-11T10:10:31.152Z,17.17
2023-05-11T10:12:58.656Z,18.13
2023-05-11T10:15:27.106Z,13.40
2023-05-11T10:17:55.056Z,17.83
2023-05-11T10:20:22.063Z,18.13
2023-05-11T10:22:51.457Z,14.80
2023-05-11T10:25:18.532Z,15.20
2023-05-11T10:27:45.895Z,15.30
2023-05-11T10:30:13.354Z,14.67
2023-05-11T10:32:40.245Z,18.40
2023-05-11T10:35:07.444Z,16.20
2023-05-11T10:37:34.167Z,16.80
2023-05-11T10:40:00.955Z,18.37
2023-05-11T10:42:33.891Z,22.10
2023-05-11T10:45:09.154Z,20.17
2023-05-11T10:47:47.981Z,16.50
2023-05-11T10:50:20.673Z,18.93
2023-05-11T10:53:04.777Z,16.13
2023-05-11T10:55:34.581Z,16.17
2023-05-11T11:01:40.530Z,17.23
2023-05-11T11:04:08.363Z,15.87
2023-05-11T11:06:36.030Z,17.47
2023-05-11T11:09:04.559Z,18.63
2023-05-11T11:11:39.360Z,14.00
2023-05-11T11:14:07.161Z,18.87
2023-05-11T11:16:34.168Z,16.77
2023-05-11T11:19:19.423Z,16.60
2023-05-11T11:21:46.083Z,16.53
2023-05-11T11:24:32.666Z,21.53
2023-05-11T11:26:59.332Z,20.37
2023-05-11T11:29:25.972Z,19.00
2023-05-11T11:31:52.579Z,14.80
2023-05-11T11:34:28.527Z,18.77
2023-05-11T11:36:55.281Z,19.77
2023-05-11T11:39:22.366Z,18.43
2023-05-11T11:42:01.668Z,18.80
2023-05-11T11:44:29.072Z,20.10
2023-05-11T11:47:10.984Z,23.40
2023-05-11T11:49:38.307Z,22.17
2023-05-11T11:52:09.174Z,18.63
2023-05-11T11:54:42.558Z,20.33
2023-05-11T11:57:39.588Z,18.63
2023-05-11T12:00:13.096Z,18.93
2023-05-11T12:02:44.176Z,20.43
2023-05-11T12:05:19.507Z,16.13
2023-05-11T12:07:47.383Z,15.87
2023-05-11T12:10:14.956Z,16.20
2023-05-11T12:12:45.192Z,15.73
2023-05-11T12:15:22.797Z,15.17
2023-05-11T12:17:49.540Z,13.23
2023-05-11T12:20:18.430Z,16.00
2023-05-11T12:22:47.638Z,18.47
2023-05-11T12:25:15.953Z,15.27
2023-05-11T12:27:58.164Z,18.63
2023-05-11T12:30:26.309Z,16.83
2023-05-11T12:35:25.240Z,12.90
2023-05-11T12:37:52.494Z,17.90
2023-05-11T12:40:19.292Z,14.60
2023-05-11T12:42:52.875Z,11.93
2023-05-11T12:45:20.728Z,12.57
2023-05-11T12:47:48.024Z,11.97
2023-05-11T12:50:15.073Z,12.63
2023-05-11T12:52:41.746Z,12.43
2023-05-11T12:55:09.866Z,16.77
2023-05-11T12:57:36.458Z,12.80
2023-05-11T13:00:11.261Z,12.27
2023-05-11T13:02:50.183Z,14.33
2023-05-11T13:05:17.366Z,13.60
2023-05-11T13:07:44.542Z,9.80
2023-05-11T13:10:12.153Z,10.33
2023-05-11T13:12:50.494Z,11.70
2023-05-11T13:15:17.883Z,13.77
2023-05-11T13:17:44.941Z,13.30
2023-05-11T13:20:15.829Z,11.70
2023-05-11T13:22:42.838Z,12.53
2023-05-11T13:25:10.764Z,11.93
2023-05-11T13:27:37.995Z,12.43
2023-05-11T13:30:05.428Z,13.47
2023-05-11T13:32:32.294Z,13.07
2023-05-11T13:35:01.654Z,13.10
2023-05-11T13:37:28.446Z,14.50
2023-05-11T13:39:55.053Z,14.33
2023-05-11T13:42:21.710Z,12.00
2023-05-11T13:44:48.366Z,12.30
2023-05-11T13:47:15.107Z,15.03
2023-05-11T13:49:42.372Z,13.33
2023-05-11T13:52:09.151Z,11.10
2023-05-11T13:54:35.995Z,12.63
2023-05-11T13:57:02.952Z,10.27
2023-05-11T13:59:29.761Z,10.80
2023-05-11T14:01:56.918Z,10.37
2023-05-11T14:04:25.553Z,12.80
2023-05-11T14:06:52.302Z,10.60
2023-05-11T14:09:19.141Z,12.13
2023-05-11T14:11:45.938Z,8.33
2023-05-11T14:14:13.132Z,10.80
2023-05-11T14:16:39.894Z,9.93
2023-05-11T14:19:08.019Z,11.80
2023-05-11T14:21:35.402Z,13.53
2023-05-11T14:24:11.473Z,11.20
2023-05-11T14:26:39.882Z,10.23
2023-05-11T14:29:07.754Z,11.80
2023-05-11T14:31:35.408Z,9.03
2023-05-11T14:34:02.917Z,10.80
2023-05-11T14:36:30.031Z,11.57
2023-05-11T14:38:56.736Z,10.60
2023-05-11T14:41:23.692Z,12.43
2023-05-11T14:43:50.484Z,13.93
2023-05-11T14:46:18.009Z,13.07
2023-05-11T14:48:44.787Z,10.67
2023-05-11T14:51:11.478Z,11.33
2023-05-11T14:53:38.401Z,10.87
2023-05-11T14:56:05.305Z,13.70
2023-05-11T14:58:32.324Z,10.97
2023-05-11T15:00:59.170Z,11.73
2023-05-11T15:03:26.022Z,9.80
2023-05-11T15:05:52.878Z,10.77
2023-05-11T15:08:29.705Z,11.83
2023-05-11T15:10:57.157Z,12.60
2023-05-11T15:13:24.427Z,14.13
2023-05-11T15:15:51.971Z,10.03
2023-05-11T15:18:19.138Z,10.63
2023-05-11T15:20:46.442Z,13.30
2023-05-11T15:23:17.041Z,15.27
2023-05-11T15:25:45.126Z,14.30
2023-05-11T15:28:12.189Z,12.83
2023-05-11T15:30:39.008Z,13.70
2023-05-11T15:33:05.854Z,10.80
2023-05-11T15:35:37.465Z,13.70
2023-05-11T15:38:04.120Z,12.87
2023-05-11T15:40:30.895Z,15.67
2023-05-11T15:42:58.762Z,12.13
2023-05-11T15:45:26.076Z,10.67
2023-05-11T15:47:52.860Z,10.33
2023-05-11T15:50:19.901Z,11.80
2023-05-11T15:52:47.343Z,10.43
2023-05-11T15:55:14.519Z,12.40
2023-05-11T15:57:41.289Z,11.27
2023-05-11T16:00:10.672Z,10.70
2023-05-11T16:02:37.509Z,10.43
2023-05-11T16:05:04.454Z,12.20
2023-05-11T16:07:32.716Z,13.23
2023-05-11T16:09:59.527Z,13.50
2023-05-11T16:12:26.857Z,15.10
2023-05-11T16:14:53.514Z,13.60
2023-05-11T16:17:20.593Z,11.37
2023-05-11T16:19:47.519Z,14.73
2023-05-11T16:22:14.209Z,14.40
2023-05-11T16:24:40.965Z,13.33
2023-05-11T16:27:07.685Z,15.23
2023-05-11T16:29:34.610Z,12.53
2023-05-11T16:32:01.757Z,13.00
2023-05-11T16:34:28.525Z,11.73
2023-05-11T16:36:56.754Z,9.50
2023-05-11T16:39:25.409Z,11.47
2023-05-11T16:41:52.084Z,10.27
2023-05-11T16:44:18.722Z,11.93
2023-05-11T16:46:45.379Z,11.00
2023-05-11T16:49:12.130Z,12.00
2023-05-11T16:51:38.864Z,9.53
2023-05-11T16:54:05.594Z,9.50
2023-05-11T16:56:32.319Z,9.87
2023-05-11T16:58:59.200Z,12.53
2023-05-11T17:01:26.517Z,9.00
2023-05-11T17:03:53.290Z,11.53
2023-05-11T17:06:22.915Z,12.93
2023-05-11T17:08:49.785Z,12.57
2023-05-11T17:11:16.425Z,13.13
2023-05-11T17:13:43.065Z,12.70
2023-05-11T17:16:10.016Z,11.60
2023-05-11T17:18:36.851Z,11.50
2023-05-11T17:21:03.653Z,12.13
2023-05-11T17:23:31.582Z,12.93
2023-05-11T17:25:58.519Z,14.83
2023-05-11T17:28:25.236Z,14.20
2023-05-11T17:30:54.715Z,13.70
2023-05-11T17:33:21.506Z,13.77
2023-05-11T17:35:48.856Z,15.60
2023-05-11T17:38:16.060Z,11.53
2023-05-11T17:40:42.900Z,13.73
2023-05-11T17:43:09.662Z,16.50
2023-05-11T17:45:36.833Z,15.23
2023-05-11T17:48:03.671Z,14.67
2023-05-11T17:50:30.671Z,11.27
2023-05-11T17:52:57.398Z,11.70
2023-05-11T17:55:24.555Z,14.97
2023-05-11T17:57:51.922Z,16.23
2023-05-11T18:00:19.091Z,16.67
2023-05-11T18:02:47.307Z,16.17
2023-05-11T18:05:15.931Z,20.10
2023-05-11T18:07:42.880Z,18.37
2023-05-11T18:10:11.111Z,23.30
2023-05-11T18:12:37.893Z,22.67
2023-05-11T18:15:05.005Z,23.20
2023-05-11T18:17:31.873Z,25.43
2023-05-11T18:19:58.654Z,28.10
2023-05-11T18:22:25.468Z,29.37
2023-05-11T18:24:52.549Z,29.73
2023-05-11T18:27:19.332Z,29.57
2023-05-11T18:29:46.372Z,37.13
2023-05-11T18:32:13.116Z,35.20
2023-05-11T18:34:41.469Z,34.50
2023-05-11T18:37:09.260Z,36.83
2023-05-11T18:39:37.163Z,32.63
2023-05-11T18:42:04.087Z,31.80
2023-05-11T18:44:30.877Z,39.90
2023-05-11T18:46:57.726Z,34.07
2023-05-11T18:49:24.559Z,33.47
2023-05-11T18:51:51.377Z,29.63
2023-05-11T18:54:18.582Z,20.10
2023-05-11T18:56:46.736Z,21.60
2023-05-11T18:59:13.666Z,20.63
2023-05-11T19:04:13.667Z,23.87
2023-05-11T19:06:41.013Z,21.27
2023-05-11T19:09:07.772Z,24.67
2023-05-11T19:11:35.645Z,23.70
2023-05-11T19:14:02.916Z,27.13
2023-05-11T19:16:32.759Z,24.10
2023-05-11T19:18:59.872Z,24.80
2023-05-11T19:21:26.720Z,21.27
2023-05-11T19:23:53.621Z,24.03
2023-05-11T19:26:20.422Z,23.80
2023-05-11T19:28:47.177Z,24.00
2023-05-11T19:31:13.992Z,23.33
2023-05-11T19:33:40.730Z,24.47
2023-05-11T19:36:07.523Z,27.17
2023-05-11T19:38:36.011Z,28.50
2023-05-11T19:41:03.614Z,23.67
2023-05-11T19:43:33.294Z,23.67
2023-05-11T19:46:02.571Z,23.37
2023-05-11T19:48:30.033Z,26.23
2023-05-11T19:50:57.232Z,28.57
2023-05-11T19:53:24.439Z,24.27
2023-05-11T19:55:51.170Z,25.73
2023-05-11T19:58:17.877Z,29.17
2023-05-11T20:00:44.885Z,27.97
2023-05-11T20:03:11.926Z,27.67
2023-05-11T20:05:38.880Z,29.33
2023-05-11T20:08:06.330Z,27.60
2023-05-11T20:10:33.699Z,25.73
2023-05-11T20:13:00.500Z,32.50
2023-05-11T20:15:27.244Z,31.53
2023-05-11T20:17:53.995Z,30.70
2023-05-11T20:20:20.984Z,30.50
2023-05-11T20:22:48.020Z,32.97
2023-05-11T20:25:18.849Z,33.87
2023-05-11T20:27:46.071Z,34.30
2023-05-11T20:30:13.015Z,35.07
2023-05-11T20:35:26.969Z,37.80
2023-05-11T20:37:55.047Z,39.43
2023-05-11T20:40:22.486Z,35.90
2023-05-11T20:42:49.377Z,38.70
2023-05-11T20:45:16.309Z,36.10
2023-05-11T20:47:43.644Z,41.80
2023-05-11T20:50:11.154Z,36.87
2023-05-11T20:52:38.242Z,40.03
2023-05-11T20:55:05.850Z,34.93
2023-05-11T20:57:32.646Z,40.00
2023-05-11T21:02:29.391Z,36.93
2023-05-11T21:05:02.072Z,40.10
2023-05-11T21:07:29.185Z,38.00
2023-05-11T21:09:56.011Z,37.83
2023-05-11T21:12:23.533Z,36.07
2023-05-11T21:14:50.410Z,40.63
2023-05-11T21:17:17.178Z,40.90
2023-05-11T21:19:43.963Z,37.60
2023-05-11T21:22:11.118Z,37.73
2023-05-11T21:24:37.954Z,43.10
2023-05-11T21:27:04.772Z,43.00
2023-05-11T21:29:31.630Z,43.60
2023-05-11T21:31:58.436Z,40.70
2023-05-11T21:34:25.168Z,43.27
2023-05-11T21:36:51.989Z,40.50
2023-05-11T21:39:18.940Z,38.00
2023-05-11T21:41:45.756Z,43.30
2023-05-11T21:44:12.539Z,41.87
2023-05-11T21:46:39.183Z,43.10
2023-05-11T21:49:06.401Z,42.10
2023-05-11T21:51:33.737Z,39.27
2023-05-11T21:54:00.613Z,36.07
2023-05-11T21:56:27.456Z,38.90
2023-05-11T21:58:54.383Z,38.27
2023-05-11T22:01:21.141Z,39.97
2023-05-11T22:03:47.931Z,38.13
2023-05-11T22:06:14.673Z,34.67
2023-05-11T22:08:41.349Z,38.13
2023-05-11T22:11:08.050Z,38.20
2023-05-11T22:13:35.039Z,34.37
2023-05-11T22:16:01.726Z,36.80
2023-05-11T22:18:28.880Z,40.23
2023-05-11T22:20:55.837Z,40.70
2023-05-11T22:23:22.619Z,41.67
2023-05-11T22:25:49.386Z,46.80
2023-05-11T22:28:16.095Z,42.87
2023-05-11T22:30:43.305Z,43.93
2023-05-11T22:33:10.040Z,44.97
2023-05-11T22:35:36.946Z,43.23
2023-05-11T22:38:04.515Z,46.23
2023-05-11T22:40:31.222Z,46.30
2023-05-11T22:42:58.247Z,45.27
2023-05-11T22:45:24.960Z,48.60
2023-05-11T22:47:51.698Z,46.70
2023-05-11T22:50:18.754Z,44.03
2023-05-11T22:52:45.727Z,49.23
2023-05-11T22:55:12.388Z,52.20
2023-05-11T22:57:39.111Z,49.87
2023-05-11T23:00:06.225Z,46.57
2023-05-11T23:02:33.616Z,49.20
2023-05-11T23:05:00.471Z,47.80
2023-05-11T23:07:27.370Z,49.80
2023-05-11T23:09:54.125Z,50.03
2023-05-11T23:12:20.971Z,44.40
2023-05-11T23:14:47.700Z,49.17
2023-05-11T23:17:14.631Z,45.33
2023-05-11T23:19:41.813Z,49.00
2023-05-11T23:22:08.577Z,46.23
2023-05-11T23:24:35.274Z,43.90
2023-05-11T23:27:03.482Z,44.33
2023-05-11T23:29:30.870Z,46.17
2023-05-11T23:31:57.634Z,47.33
2023-05-11T23:34:24.272Z,43.50
2023-05-11T23:36:51.064Z,42.67
2023-05-11T23:39:18.105Z,41.33
2023-05-11T23:41:44.792Z,44.23
2023-05-11T23:44:11.904Z,47.43
2023-05-11T23:46:39.110Z,47.47
2023-05-11T23:49:05.739Z,46.80
2023-05-11T23:51:32.561Z,49.90
2023-05-11T23:53:59.819Z,49.93
2023-05-11T23:56:26.483Z,53.07
2023-05-11T23:58:53.311Z,51.00
